createdAt,value
2018-12-31T16:02:25.588Z,102251.59
2018-12-31T16:05:30.588Z,102252.72
2018-12-31T16:08:33.994Z,102249.93
2018-12-31T16:11:37.357Z,102249.57
2018-12-31T16:14:40.682Z,102242.46
2018-12-31T16:17:44.090Z,102246.73
2018-12-31T16:20:47.484Z,102243.67
2018-12-31T16:23:51.351Z,102246.53
2018-12-31T16:26:54.934Z,102241.84
2018-12-31T16:29:58.256Z,102243.06
2018-12-31T16:33:01.593Z,102241.24
2018-12-31T16:36:04.969Z,102233.00
2018-12-31T16:39:10.556Z,102228.53
2018-12-31T16:42:13.915Z,102220.47
2018-12-31T16:45:17.313Z,102208.69
2018-12-31T16:48:21.054Z,102214.39
2018-12-31T16:51:31.169Z,102209.63
2018-12-31T16:54:34.625Z,102204.33
2018-12-31T16:57:37.993Z,102209.89
2018-12-31T17:00:42.889Z,102207.86
2018-12-31T17:03:46.313Z,102204.11
2018-12-31T17:06:49.663Z,102207.34
2018-12-31T17:09:53.061Z,102199.20
2018-12-31T17:12:59.449Z,102207.06
2018-12-31T17:16:02.769Z,102212.41
2018-12-31T17:19:06.161Z,102220.37
2018-12-31T17:22:09.504Z,102213.35
2018-12-31T17:25:12.904Z,102218.20
2018-12-31T17:28:17.881Z,102213.48
2018-12-31T17:31:24.557Z,102213.48
2018-12-31T17:34:27.958Z,102214.48
2018-12-31T17:37:31.289Z,102208.35
2018-12-31T17:40:36.243Z,102205.49
2018-12-31T17:43:39.693Z,102201.58
2018-12-31T17:46:43.095Z,102198.44
2018-12-31T17:49:46.444Z,102192.27
2018-12-31T17:52:51.708Z,102192.81
2018-12-31T17:55:55.032Z,102194.91
2018-12-31T17:59:00.435Z,102192.81
2018-12-31T18:02:03.774Z,102191.47
2018-12-31T18:05:08.655Z,102193.25
2018-12-31T18:08:12.120Z,102189.18
2018-12-31T18:11:15.492Z,102183.94
2018-12-31T18:14:39.945Z,102180.33
2018-12-31T18:17:43.571Z,102183.03
2018-12-31T18:24:36.780Z,102171.21
2018-12-31T18:27:40.098Z,102165.92
2018-12-31T18:30:43.458Z,102164.71
2018-12-31T18:33:48.148Z,102175.45
2018-12-31T18:36:51.558Z,102181.34
2018-12-31T18:39:57.980Z,102179.61
2018-12-31T18:43:01.499Z,102184.08
2018-12-31T18:46:04.872Z,102182.78
2018-12-31T18:49:10.368Z,102187.55
2018-12-31T18:52:13.800Z,102187.97
2018-12-31T18:55:17.178Z,102187.88
2018-12-31T18:58:20.636Z,102187.11
2018-12-31T19:01:44.051Z,102179.03
2018-12-31T19:04:46.794Z,102185.03
2018-12-31T19:07:50.232Z,102180.73
2018-12-31T19:10:53.894Z,102180.73
2018-12-31T19:13:57.480Z,102173.51
2018-12-31T19:17:03.567Z,102172.36
2018-12-31T19:20:07.516Z,102166.59
2018-12-31T19:23:10.908Z,102171.50
2018-12-31T19:26:14.274Z,102170.16
2018-12-31T19:29:30.180Z,102170.25
2018-12-31T19:32:33.564Z,102164.50
2018-12-31T19:35:37.020Z,102170.33
2018-12-31T19:38:40.808Z,102162.01
2018-12-31T19:41:44.427Z,102161.04
